Safford, AZ

1:01 PM MST on September 20, 2014 (GMT -0700)
Safford Regional | Change Station
CLOSE
Current Station
Airport
Location: Safford,
Elevation: 3176 ft
Nearby Weather Stations

Elev 3176 ft 32.86 °N, 109.64 °W | Updated 10 minutes ago

Clear
Clear
88 °F
Feels Like 88 °F
N
4
Wind Variable Wind from Variable

Today
High -- | Low -- °F
--% Chance of Precip.
Yesterday
High -- | Low -- °F
Precip. -- in
6:05 AM 6:18 PM
Waning Crescent, 11% visible
Pressure 29.81 in
Visibility 10.0 miles
Clouds Clear
Heat Index 88 °F
Dew Point 62 °F
Humidity 42%
Rainfall 0.00 in
Snow Depth 0 in , 0 in
UV 9 out of 12
Pollen 7.70 out of 12
Air Quality Not available.
Flu Activity Not available.
METAR KSAD 201951Z AUTO VRB03KT 10SM CLR 31/17 A2996 RMK AO2 SLP092 T03110167

More Conditions Fewer Conditions

Pressure 29.81 in
Visibility 10.0 miles
Clouds Clear
Heat Index 88 °F
Dew Point 62 °F
Humidity 42%
Rainfall 0.00 in
Snow Depth 0 in , 0 in
UV 9 out of 12
Pollen 7.70 out of 12
Air Quality Not available.
Flu Activity Not available.
METAR KSAD 201951Z AUTO VRB03KT 10SM CLR 31/17 A2996 RMK AO2 SLP092 T03110167

More Conditions Fewer Conditions

10-Day Weather Forecast

Almanac

Astronomy

Sep. 20, 2014 Rise Set
Actual Time 6:05 AM MST 6:18 PM MST
Civil Twilight 5:41 AM MST 6:42 PM MST
Nautical Twilight 5:12 AM MST 7:11 PM MST
Astronomical Twilight 4:43 AM MST 7:40 PM MST
Moon 2:56 AM MST 4:16 PM MST
Length of Visible Light 13h 01m
Length of Day
12h 12m
Tomorrow will be 2m 0s shorter.
Waning Crescent, 11% of the Moon is Illuminated
Today
Waning Crescent
Sep 24
New
Oct 1
First Quarter
Oct 8
Full
Oct 15
Last Quarter

Today's Extremes

State Highs State Lows

Community

WunderPhotos

Upload Photos

1,754,927 photos uploaded!

WunderBlogs® & News

Nearby

Snow Depth

Station Depth Elevation
Snowslide Canyon 0 in 9730 ft
Workman Creek 0 in 6900 ft

Earthquake Activity

City Distance Mag. Time & Date
No recent earthquake activity has been reported nearby.
Minimum magnitude displayed is 2.5.

Coastal Water Temperatures

Place Temperature
No Stations Reporting

Nearby Weather Stations